createdAt,value
2019-02-08T00:00:55.834Z,12.90
2019-02-08T00:01:56.800Z,13.70
2019-02-08T00:02:56.418Z,13.50
2019-02-08T00:03:56.299Z,13.80
2019-02-08T00:04:57.227Z,12.20
2019-02-08T00:05:57.444Z,13.90
2019-02-08T00:06:57.957Z,12.70
2019-02-08T00:07:57.294Z,12.60
2019-02-08T00:08:57.969Z,13.10
2019-02-08T00:09:57.819Z,12.10
2019-02-08T00:10:58.503Z,13.40
2019-02-08T00:11:58.347Z,12.80
2019-02-08T00:12:58.663Z,12.80
2019-02-08T00:13:59.331Z,12.20
2019-02-08T00:14:59.189Z,13.80
2019-02-08T00:15:59.490Z,12.10
2019-02-08T00:16:59.801Z,12.50
2019-02-08T00:18:00.679Z,11.60
2019-02-08T00:19:00.700Z,13.00
2019-02-08T00:20:01.220Z,12.00
2019-02-08T00:21:01.549Z,12.30
2019-02-08T00:22:02.073Z,10.80
2019-02-08T00:23:02.564Z,10.50
2019-02-08T00:24:02.887Z,11.50
2019-02-08T00:25:03.309Z,11.60
2019-02-08T00:26:03.508Z,10.40
2019-02-08T00:27:03.007Z,11.50
2019-02-08T00:28:02.905Z,11.10
2019-02-08T00:29:02.686Z,11.10
2019-02-08T00:30:03.951Z,11.30
2019-02-08T00:31:03.852Z,11.90
2019-02-08T00:32:03.970Z,10.70
2019-02-08T00:33:04.676Z,10.70
2019-02-08T00:34:04.472Z,11.20
2019-02-08T00:35:04.688Z,10.80
2019-02-08T00:36:04.574Z,11.50
2019-02-08T00:37:06.147Z,10.90
2019-02-08T00:38:05.840Z,12.90
2019-02-08T00:39:06.154Z,10.90
2019-02-08T00:40:06.361Z,10.20
2019-02-08T00:41:07.190Z,10.60
2019-02-08T00:42:07.099Z,11.80
2019-02-08T00:43:07.408Z,9.90
2019-02-08T00:44:07.793Z,10.10
2019-02-08T00:45:08.242Z,10.30
2019-02-08T00:46:08.350Z,10.70
2019-02-08T00:47:08.570Z,11.10
2019-02-08T00:48:08.656Z,10.00
2019-02-08T00:49:08.772Z,9.80
2019-02-08T00:50:09.000Z,10.70
2019-02-08T00:51:09.000Z,10.20
2019-02-08T00:52:09.354Z,9.40
2019-02-08T00:53:09.546Z,9.40
2019-02-08T00:54:09.717Z,10.20
2019-02-08T00:55:09.943Z,10.60
2019-02-08T00:56:10.150Z,9.20
2019-02-08T00:57:10.374Z,9.80
2019-02-08T00:58:10.368Z,9.70
2019-02-08T00:59:10.925Z,10.80
2019-02-08T01:00:11.008Z,9.10
2019-02-08T01:01:10.754Z,9.70
2019-02-08T01:02:10.873Z,9.40
2019-02-08T01:03:10.927Z,9.60
2019-02-08T01:04:11.379Z,9.50
2019-02-08T01:05:12.050Z,9.10
2019-02-08T01:06:12.266Z,9.40
2019-02-08T01:07:11.618Z,8.80
2019-02-08T01:08:11.984Z,8.90
2019-02-08T01:09:12.342Z,8.60
2019-02-08T01:10:12.631Z,9.70
2019-02-08T01:11:13.220Z,8.50
2019-02-08T01:12:13.211Z,9.40
2019-02-08T01:13:13.072Z,8.70
2019-02-08T01:14:13.415Z,9.10
2019-02-08T01:15:14.492Z,9.60
2019-02-08T01:16:14.129Z,9.30
2019-02-08T01:17:14.423Z,10.00
2019-02-08T01:18:14.702Z,9.30
2019-02-08T01:19:15.319Z,8.80
2019-02-08T01:20:15.940Z,9.00
2019-02-08T01:21:15.492Z,9.50
2019-02-08T01:22:15.791Z,8.60
2019-02-08T01:23:16.109Z,10.10
2019-02-08T01:24:16.413Z,9.10
2019-02-08T01:25:17.287Z,9.30
2019-02-08T01:26:17.412Z,9.90
2019-02-08T01:27:17.431Z,8.70
2019-02-08T01:28:17.627Z,9.00
2019-02-08T01:29:17.474Z,8.10
2019-02-08T01:30:18.043Z,8.70
2019-02-08T01:31:18.029Z,8.50
2019-02-08T01:32:18.443Z,8.40
2019-02-08T01:33:19.310Z,7.90
2019-02-08T01:34:19.095Z,9.00
2019-02-08T01:35:19.459Z,8.70
2019-02-08T01:36:19.469Z,9.10
2019-02-08T01:37:20.043Z,9.60
2019-02-08T01:38:20.577Z,8.30
2019-02-08T01:39:20.108Z,8.60
2019-02-08T01:40:21.396Z,9.10
2019-02-08T01:41:21.820Z,8.30
2019-02-08T01:42:22.332Z,7.90
2019-02-08T01:43:22.140Z,8.50
2019-02-08T01:44:22.556Z,8.20
2019-02-08T01:45:22.963Z,8.50
2019-02-08T01:46:23.174Z,7.80
2019-02-08T01:47:23.182Z,7.80
2019-02-08T01:48:23.400Z,8.10
2019-02-08T01:49:23.604Z,8.00
2019-02-08T01:50:23.812Z,8.30
2019-02-08T01:51:24.124Z,8.60
2019-02-08T01:52:24.253Z,8.60
2019-02-08T01:53:24.458Z,8.70
2019-02-08T01:54:24.457Z,8.50
2019-02-08T01:55:24.941Z,7.90
2019-02-08T01:56:25.554Z,7.40
2019-02-08T01:57:25.559Z,7.30
2019-02-08T01:58:25.496Z,7.50
2019-02-08T01:59:25.813Z,7.60
2019-02-08T02:00:25.958Z,7.40
2019-02-08T02:01:25.960Z,7.80
2019-02-08T02:02:27.680Z,7.20
2019-02-08T02:03:26.923Z,7.50
2019-02-08T02:04:27.089Z,7.90
2019-02-08T02:05:27.137Z,8.20
2019-02-08T02:06:27.399Z,8.40
2019-02-08T02:07:27.684Z,7.10
2019-02-08T02:08:27.572Z,7.60
2019-02-08T02:09:27.991Z,8.80
2019-02-08T02:10:28.417Z,7.50
2019-02-08T02:11:28.974Z,7.60
2019-02-08T02:12:28.826Z,7.20
2019-02-08T02:13:29.144Z,7.30
2019-02-08T02:14:29.279Z,7.70
2019-02-08T02:15:29.377Z,7.20
2019-02-08T02:16:29.899Z,7.20
2019-02-08T02:17:29.801Z,7.40
2019-02-08T02:18:30.212Z,7.40
2019-02-08T02:19:30.790Z,7.40
2019-02-08T02:20:31.181Z,7.10
2019-02-08T02:21:31.803Z,7.40
2019-02-08T02:22:31.706Z,6.90
2019-02-08T02:23:31.554Z,7.40
2019-02-08T02:24:32.138Z,8.40
2019-02-08T02:25:32.133Z,8.20
2019-02-08T02:26:32.486Z,6.70
2019-02-08T02:27:32.871Z,7.00
2019-02-08T02:28:33.220Z,7.20
2019-02-08T02:29:33.745Z,6.80
2019-02-08T02:30:33.522Z,6.80
2019-02-08T02:31:33.856Z,6.70
2019-02-08T02:32:34.168Z,7.20
2019-02-08T02:33:34.503Z,7.50
2019-02-08T02:34:35.084Z,7.50
2019-02-08T02:35:35.374Z,6.80
2019-02-08T02:36:36.304Z,7.40
2019-02-08T02:37:36.823Z,6.80
2019-02-08T02:38:36.827Z,7.10
2019-02-08T02:39:36.845Z,6.60
2019-02-08T02:40:36.799Z,7.40
2019-02-08T02:41:37.267Z,7.30
2019-02-08T02:42:37.259Z,7.90
2019-02-08T02:43:37.554Z,6.90
2019-02-08T02:44:38.002Z,7.50
2019-02-08T02:45:38.204Z,7.80
2019-02-08T02:46:38.223Z,7.50
2019-02-08T02:47:38.322Z,6.30
2019-02-08T02:48:38.534Z,7.20
2019-02-08T02:49:39.151Z,7.40
2019-02-08T02:50:38.748Z,7.20
2019-02-08T02:51:39.169Z,7.00
2019-02-08T02:52:39.374Z,8.10
2019-02-08T02:53:39.281Z,7.10
2019-02-08T02:54:39.678Z,7.20
2019-02-08T02:55:40.122Z,8.10
2019-02-08T02:56:40.499Z,7.20
2019-02-08T02:57:40.855Z,7.10
2019-02-08T02:58:40.948Z,7.70
2019-02-08T02:59:41.089Z,7.70
2019-02-08T03:00:41.287Z,8.00
2019-02-08T03:01:41.240Z,7.60
2019-02-08T03:02:41.138Z,7.10
2019-02-08T03:03:41.715Z,7.80
2019-02-08T03:04:41.715Z,8.50
2019-02-08T03:05:42.113Z,7.70
2019-02-08T03:06:42.195Z,8.10
2019-02-08T03:07:42.612Z,7.20
2019-02-08T03:08:43.503Z,7.90
2019-02-08T03:09:43.749Z,8.40
2019-02-08T03:10:43.650Z,7.80
2019-02-08T03:11:44.056Z,7.50
2019-02-08T03:12:44.374Z,8.00
2019-02-08T03:13:44.796Z,8.40
2019-02-08T03:14:45.562Z,7.70
2019-02-08T03:15:45.360Z,8.20
2019-02-08T03:16:45.773Z,8.60
2019-02-08T03:17:46.189Z,7.50
2019-02-08T03:18:46.488Z,7.80
2019-02-08T03:19:47.333Z,7.60
2019-02-08T03:20:47.483Z,8.00
2019-02-08T03:21:47.410Z,8.10
2019-02-08T03:22:47.821Z,8.30
2019-02-08T03:23:48.493Z,8.30
2019-02-08T03:24:49.003Z,8.00
2019-02-08T03:25:48.301Z,8.30
2019-02-08T03:26:48.650Z,7.90
2019-02-08T03:27:49.124Z,8.30
2019-02-08T03:28:49.501Z,7.80
2019-02-08T03:29:50.297Z,8.70
2019-02-08T03:30:50.903Z,7.80
2019-02-08T03:31:51.129Z,8.80
2019-02-08T03:32:51.354Z,8.70
2019-02-08T03:33:51.730Z,8.00
2019-02-08T03:34:51.997Z,7.80
2019-02-08T03:35:52.462Z,7.80
2019-02-08T03:36:52.615Z,8.10
2019-02-08T03:37:52.981Z,8.30
2019-02-08T03:38:53.196Z,8.80
2019-02-08T03:39:53.410Z,7.80
2019-02-08T03:40:53.526Z,8.20
2019-02-08T03:41:53.647Z,8.30
2019-02-08T03:42:53.738Z,8.20
2019-02-08T03:43:53.984Z,8.40
2019-02-08T03:44:54.264Z,8.30
2019-02-08T03:45:54.581Z,8.60
2019-02-08T03:46:54.797Z,8.60
2019-02-08T03:47:54.668Z,8.10
2019-02-08T03:48:55.315Z,8.60
2019-02-08T03:49:55.071Z,8.20
2019-02-08T03:50:55.362Z,9.10
2019-02-08T03:51:55.877Z,8.10
2019-02-08T03:52:56.052Z,8.80
2019-02-08T03:53:55.776Z,8.00
2019-02-08T03:54:56.038Z,8.20
2019-02-08T03:55:58.449Z,9.20
2019-02-08T03:56:56.306Z,8.30
2019-02-08T03:57:56.642Z,8.80
2019-02-08T03:58:57.430Z,8.70
2019-02-08T03:59:57.284Z,9.20
2019-02-08T04:00:58.036Z,8.70
2019-02-08T04:01:58.257Z,9.20
2019-02-08T04:02:58.161Z,8.90
2019-02-08T04:03:58.524Z,7.70
2019-02-08T04:04:58.691Z,8.80
2019-02-08T04:05:59.091Z,8.50
2019-02-08T04:06:59.469Z,7.60
2019-02-08T04:08:00.246Z,8.20
2019-02-08T04:09:00.240Z,8.00
2019-02-08T04:10:01.271Z,9.50
2019-02-08T04:11:01.280Z,8.30
2019-02-08T04:12:01.099Z,8.50
2019-02-08T04:13:01.522Z,8.40
2019-02-08T04:14:02.021Z,8.50
2019-02-08T04:15:02.950Z,8.10
2019-02-08T04:16:03.063Z,8.30
2019-02-08T04:17:02.482Z,8.50
2019-02-08T04:18:03.390Z,7.80
2019-02-08T04:19:03.898Z,7.30
2019-02-08T04:20:03.803Z,7.40
2019-02-08T04:21:04.523Z,7.20
2019-02-08T04:22:04.945Z,7.50
2019-02-08T04:23:05.580Z,7.50
2019-02-08T04:24:05.774Z,7.00
2019-02-08T04:25:06.003Z,8.50
2019-02-08T04:26:06.200Z,7.60
2019-02-08T04:27:06.713Z,7.20
2019-02-08T04:28:06.423Z,7.10
2019-02-08T04:29:06.938Z,7.10
2019-02-08T04:30:06.941Z,6.80
2019-02-08T04:31:07.356Z,7.80
2019-02-08T04:32:07.156Z,8.20
2019-02-08T04:33:07.608Z,7.90
2019-02-08T04:34:07.954Z,6.50
2019-02-08T04:35:08.203Z,7.10
2019-02-08T04:36:08.410Z,7.80
2019-02-08T04:37:08.628Z,7.80
2019-02-08T04:38:08.755Z,8.10
2019-02-08T04:39:09.149Z,7.40
2019-02-08T04:40:09.460Z,7.10
2019-02-08T04:41:09.664Z,6.90
2019-02-08T04:42:09.679Z,7.00
2019-02-08T04:43:09.642Z,7.60
2019-02-08T04:44:10.114Z,7.60
2019-02-08T04:45:10.494Z,7.20
2019-02-08T04:46:11.389Z,7.40
2019-02-08T04:47:11.003Z,7.40
2019-02-08T04:48:11.150Z,6.90
2019-02-08T04:49:11.272Z,8.00
2019-02-08T04:50:11.267Z,7.20
2019-02-08T04:51:11.516Z,7.20
2019-02-08T04:52:11.618Z,7.30
2019-02-08T04:53:11.950Z,7.50
2019-02-08T04:54:12.273Z,6.90
2019-02-08T04:55:13.557Z,8.40
2019-02-08T04:56:13.040Z,7.00
2019-02-08T04:57:13.406Z,8.00
2019-02-08T04:59:13.883Z,7.40
2019-02-08T05:00:14.305Z,7.00
2019-02-08T05:01:14.666Z,7.50
2019-02-08T05:02:15.021Z,6.80
2019-02-08T05:03:15.861Z,7.60
2019-02-08T05:04:15.735Z,7.00
2019-02-08T05:05:16.279Z,6.60
2019-02-08T05:06:16.507Z,7.50
2019-02-08T05:07:16.308Z,6.50
2019-02-08T05:08:16.689Z,6.40
2019-02-08T05:09:17.082Z,7.50
2019-02-08T05:10:18.065Z,6.50
2019-02-08T05:11:18.063Z,6.30
2019-02-08T05:12:18.008Z,6.10
2019-02-08T05:13:18.168Z,6.60
2019-02-08T05:14:17.971Z,6.80
2019-02-08T05:15:18.498Z,7.10
2019-02-08T05:16:18.497Z,6.20
2019-02-08T05:17:18.937Z,6.30
2019-02-08T05:18:19.546Z,6.30
2019-02-08T05:19:19.410Z,6.50
2019-02-08T05:20:19.969Z,6.30
2019-02-08T05:21:21.100Z,6.30
2019-02-08T05:22:21.617Z,6.70
2019-02-08T05:23:21.415Z,7.30
2019-02-08T05:24:21.944Z,6.30
2019-02-08T05:25:22.266Z,6.50
2019-02-08T05:26:22.150Z,6.70
2019-02-08T05:27:22.681Z,6.90
2019-02-08T05:28:22.679Z,6.50
2019-02-08T05:29:22.992Z,6.20
2019-02-08T05:30:23.314Z,7.10
2019-02-08T05:31:23.516Z,6.70
2019-02-08T05:32:23.626Z,6.30
2019-02-08T05:33:23.734Z,6.70
2019-02-08T05:34:23.945Z,7.40
2019-02-08T05:35:24.219Z,6.80
2019-02-08T05:36:24.470Z,6.50
2019-02-08T05:37:24.614Z,6.90
2019-02-08T05:38:24.687Z,7.10
2019-02-08T05:39:24.483Z,7.40
2019-02-08T05:40:24.998Z,7.20
2019-02-08T05:41:24.800Z,6.80
2019-02-08T05:42:25.122Z,7.10
2019-02-08T05:43:25.553Z,7.70
2019-02-08T05:44:25.846Z,7.60
2019-02-08T05:45:25.923Z,6.90
2019-02-08T05:47:25.908Z,7.30
2019-02-08T05:48:26.277Z,7.60
2019-02-08T05:49:26.673Z,7.10
2019-02-08T05:50:27.262Z,7.40
2019-02-08T05:51:27.435Z,7.50
2019-02-08T05:52:27.648Z,7.60
2019-02-08T05:53:27.502Z,7.60
2019-02-08T05:54:27.801Z,7.70
2019-02-08T05:55:28.126Z,7.90
2019-02-08T05:56:28.463Z,8.10
2019-02-08T05:57:29.121Z,7.40
2019-02-08T05:58:29.314Z,8.00
2019-02-08T05:59:29.174Z,7.80
2019-02-08T06:00:29.705Z,7.30
2019-02-08T06:01:29.820Z,8.60
2019-02-08T06:02:30.457Z,6.80
2019-02-08T06:03:30.331Z,8.00
2019-02-08T06:04:30.229Z,7.50
2019-02-08T06:05:30.584Z,7.70
2019-02-08T06:06:31.321Z,7.40
2019-02-08T06:07:31.171Z,7.60
2019-02-08T06:08:31.528Z,8.00
2019-02-08T06:09:32.054Z,7.40
2019-02-08T06:10:31.922Z,8.20
2019-02-08T06:11:33.109Z,8.10
2019-02-08T06:12:32.425Z,8.00
2019-02-08T06:13:32.762Z,7.80
2019-02-08T06:14:33.065Z,8.00
2019-02-08T06:15:33.391Z,7.70
2019-02-08T06:16:33.894Z,8.40
2019-02-08T06:17:34.570Z,7.50
2019-02-08T06:18:34.573Z,7.10
2019-02-08T06:19:35.614Z,8.00
2019-02-08T06:20:35.518Z,8.10
2019-02-08T06:21:35.868Z,8.30
2019-02-08T06:22:36.137Z,8.30
2019-02-08T06:23:36.657Z,8.80
2019-02-08T06:24:36.665Z,8.70
2019-02-08T06:25:36.672Z,8.90
2019-02-08T06:26:36.683Z,8.20
2019-02-08T06:27:36.684Z,8.60
2019-02-08T06:28:36.802Z,9.20
2019-02-08T06:29:37.309Z,8.00
2019-02-08T06:30:37.114Z,8.60
2019-02-08T06:32:37.648Z,8.10
2019-02-08T06:33:37.802Z,8.10
2019-02-08T06:34:37.858Z,8.20
2019-02-08T06:35:38.045Z,9.20
2019-02-08T06:36:38.179Z,8.30
2019-02-08T06:37:44.188Z,9.90
2019-02-08T06:38:38.908Z,9.10
2019-02-08T06:39:39.219Z,9.00
2019-02-08T06:40:39.635Z,9.00
2019-02-08T06:41:39.855Z,8.90
2019-02-08T06:42:40.058Z,9.00
2019-02-08T06:43:40.267Z,8.80
2019-02-08T06:44:40.374Z,9.10
2019-02-08T06:45:40.360Z,8.30
2019-02-08T06:46:40.968Z,7.60
2019-02-08T06:47:40.773Z,8.80
2019-02-08T06:48:40.921Z,8.50
2019-02-08T06:49:41.038Z,9.40
2019-02-08T06:50:41.336Z,8.40
2019-02-08T06:51:41.458Z,8.50
2019-02-08T06:52:41.446Z,8.30
2019-02-08T06:53:41.870Z,8.70
2019-02-08T06:54:42.591Z,8.50
2019-02-08T06:55:42.364Z,9.00
2019-02-08T06:56:42.819Z,8.20
2019-02-08T06:57:42.953Z,8.40
2019-02-08T06:58:43.849Z,9.10
2019-02-08T06:59:43.699Z,8.20
2019-02-08T07:00:44.033Z,7.50
2019-02-08T07:01:44.494Z,9.20
2019-02-08T07:02:44.999Z,8.70
2019-02-08T07:03:44.545Z,9.40
2019-02-08T07:04:44.877Z,8.30
2019-02-08T07:05:45.378Z,8.40
2019-02-08T07:06:45.809Z,9.20
2019-02-08T07:07:45.952Z,8.20
2019-02-08T07:08:45.806Z,9.10
2019-02-08T07:09:45.926Z,9.10
2019-02-08T07:10:46.240Z,8.60
2019-02-08T07:11:46.236Z,8.60
2019-02-08T07:12:46.568Z,8.30
2019-02-08T07:13:46.862Z,9.70
2019-02-08T07:14:47.194Z,8.40
2019-02-08T07:15:47.956Z,8.40
2019-02-08T07:16:47.383Z,8.40
2019-02-08T07:17:47.974Z,8.60
2019-02-08T07:18:48.178Z,8.10
2019-02-08T07:19:48.521Z,8.60
2019-02-08T07:20:48.223Z,8.60
2019-02-08T07:21:48.236Z,8.90
2019-02-08T07:22:48.586Z,9.10
2019-02-08T07:23:49.132Z,8.60
2019-02-08T07:24:48.771Z,8.30
2019-02-08T07:25:49.126Z,8.00
2019-02-08T07:26:49.566Z,8.70
2019-02-08T07:27:49.427Z,9.00
2019-02-08T07:28:49.670Z,8.80
2019-02-08T07:29:50.819Z,8.20
2019-02-08T07:30:50.825Z,8.20
2019-02-08T07:31:51.339Z,9.10
2019-02-08T07:32:51.756Z,7.90
2019-02-08T07:33:52.065Z,8.80
2019-02-08T07:34:52.278Z,8.10
2019-02-08T07:35:52.592Z,7.90
2019-02-08T07:36:52.597Z,8.10
2019-02-08T07:37:52.980Z,8.10
2019-02-08T07:38:53.127Z,8.70
2019-02-08T07:39:53.029Z,8.00
2019-02-08T07:40:53.180Z,7.30
2019-02-08T07:41:53.656Z,7.50
2019-02-08T07:42:53.465Z,7.50
2019-02-08T07:43:53.882Z,7.50
2019-02-08T07:44:54.081Z,8.20
2019-02-08T07:45:54.119Z,7.60
2019-02-08T07:46:54.505Z,8.20
2019-02-08T07:47:54.783Z,7.70
2019-02-08T07:48:54.945Z,8.50
2019-02-08T07:49:55.459Z,7.00
2019-02-08T07:50:55.449Z,6.80
2019-02-08T07:51:55.870Z,7.60
2019-02-08T07:52:55.601Z,7.20
2019-02-08T07:53:55.695Z,7.30
2019-02-08T07:54:55.703Z,6.70
2019-02-08T07:55:56.257Z,6.80
2019-02-08T07:56:56.514Z,7.00
2019-02-08T07:57:56.236Z,7.40
2019-02-08T07:58:56.388Z,6.40
2019-02-08T07:59:56.572Z,7.60
2019-02-08T08:00:56.799Z,6.30
2019-02-08T08:01:57.163Z,6.70
2019-02-08T08:02:57.520Z,6.10
2019-02-08T08:04:01.356Z,6.60
2019-02-08T08:04:58.471Z,6.70
2019-02-08T08:05:58.621Z,6.00
2019-02-08T08:06:59.325Z,6.60
2019-02-08T08:08:00.429Z,6.90
2019-02-08T08:08:59.424Z,6.80
2019-02-08T08:09:59.801Z,7.10
2019-02-08T08:10:59.738Z,6.20
2019-02-08T08:12:00.402Z,6.50
2019-02-08T08:13:00.340Z,6.40
2019-02-08T08:14:00.658Z,6.90
2019-02-08T08:15:01.441Z,6.90
2019-02-08T08:16:01.859Z,6.80
2019-02-08T08:17:01.659Z,6.70
2019-02-08T08:18:01.772Z,7.00
2019-02-08T08:19:02.300Z,5.70
2019-02-08T08:20:02.706Z,6.40
2019-02-08T08:21:03.168Z,6.90
2019-02-08T08:22:02.675Z,6.80
2019-02-08T08:23:03.441Z,7.40
2019-02-08T08:24:03.782Z,7.10
2019-02-08T08:25:03.088Z,7.20
2019-02-08T08:26:03.769Z,6.60
2019-02-08T08:27:04.190Z,6.90
2019-02-08T08:28:03.744Z,7.30
2019-02-08T08:29:04.413Z,7.80
2019-02-08T08:30:04.852Z,6.10
2019-02-08T08:31:04.727Z,7.00
2019-02-08T08:32:05.139Z,6.80
2019-02-08T08:33:05.965Z,7.20
2019-02-08T08:34:06.183Z,6.90
2019-02-08T08:35:06.488Z,6.60
2019-02-08T08:36:06.701Z,7.50
2019-02-08T08:37:07.224Z,6.90
2019-02-08T08:38:07.328Z,6.40
2019-02-08T08:39:07.955Z,6.60
2019-02-08T08:40:07.957Z,7.20
2019-02-08T08:41:08.478Z,6.30
2019-02-08T08:42:08.789Z,6.30
2019-02-08T08:43:08.693Z,7.10
2019-02-08T08:44:09.220Z,5.70
2019-02-08T08:45:09.219Z,6.10
2019-02-08T08:46:09.420Z,6.20
2019-02-08T08:47:09.603Z,5.50
2019-02-08T08:48:09.241Z,6.20
2019-02-08T08:49:09.974Z,6.20
2019-02-08T08:50:10.276Z,6.70
2019-02-08T08:51:10.340Z,6.30
2019-02-08T08:52:10.504Z,6.30
2019-02-08T08:53:10.623Z,7.10
2019-02-08T08:54:10.830Z,6.20
2019-02-08T08:55:11.335Z,6.00
2019-02-08T08:56:10.831Z,6.30
2019-02-08T08:57:11.106Z,5.90
2019-02-08T08:58:11.672Z,6.00
2019-02-08T08:59:11.370Z,6.20
2019-02-08T09:00:12.096Z,6.50
2019-02-08T09:01:12.398Z,6.00
2019-02-08T09:02:12.357Z,6.20
2019-02-08T09:03:12.311Z,6.20
2019-02-08T09:04:12.380Z,5.70
2019-02-08T09:05:12.467Z,6.10
2019-02-08T09:06:13.558Z,5.80
2019-02-08T09:07:16.457Z,6.20
2019-02-08T09:08:13.975Z,6.40
2019-02-08T09:09:13.623Z,6.20
2019-02-08T09:10:13.896Z,6.10
2019-02-08T09:11:14.385Z,6.20
2019-02-08T09:12:14.757Z,5.80
2019-02-08T09:13:15.220Z,4.90
2019-02-08T09:14:15.471Z,5.10
2019-02-08T09:15:16.394Z,5.80
2019-02-08T09:16:15.917Z,5.70
2019-02-08T09:17:16.026Z,6.00
2019-02-08T09:18:16.594Z,6.00
2019-02-08T09:19:16.659Z,4.80
2019-02-08T09:20:18.057Z,5.80
2019-02-08T09:21:17.642Z,6.00
2019-02-08T09:22:18.368Z,5.60
2019-02-08T09:23:18.578Z,5.40
2019-02-08T09:24:18.605Z,5.10
2019-02-08T09:25:18.778Z,5.70
2019-02-08T09:26:18.984Z,4.90
2019-02-08T09:27:19.255Z,5.00
2019-02-08T09:28:20.560Z,5.20
2019-02-08T09:29:20.465Z,5.50
2019-02-08T09:30:20.569Z,6.00
2019-02-08T09:31:21.099Z,5.50
2019-02-08T09:32:21.198Z,4.90
2019-02-08T09:33:21.922Z,5.50
2019-02-08T09:34:22.133Z,5.70
2019-02-08T09:35:22.444Z,5.20
2019-02-08T09:36:22.665Z,4.40
2019-02-08T09:37:22.870Z,4.90
2019-02-08T09:38:22.755Z,5.20
2019-02-08T09:39:22.679Z,5.00
2019-02-08T09:40:23.094Z,4.90
2019-02-08T09:41:23.619Z,5.30
2019-02-08T09:42:23.926Z,5.50
2019-02-08T09:43:24.339Z,5.80
2019-02-08T09:44:24.240Z,4.90
2019-02-08T09:45:24.563Z,5.30
2019-02-08T09:46:25.075Z,5.10
2019-02-08T09:47:24.981Z,4.90
2019-02-08T09:48:25.398Z,5.50
2019-02-08T09:49:25.645Z,4.60
2019-02-08T09:50:25.888Z,4.80
2019-02-08T09:51:25.887Z,5.40
2019-02-08T09:52:25.866Z,4.90
2019-02-08T09:53:26.666Z,5.00
2019-02-08T09:54:26.605Z,4.50
2019-02-08T09:55:26.702Z,4.40
2019-02-08T09:56:27.255Z,5.00
2019-02-08T09:57:27.350Z,4.60
2019-02-08T09:58:28.017Z,3.80
2019-02-08T09:59:27.657Z,4.50
2019-02-08T10:00:27.917Z,4.20
2019-02-08T10:01:28.145Z,4.70
2019-02-08T10:02:28.280Z,4.60
2019-02-08T10:03:28.404Z,4.00
2019-02-08T10:04:28.536Z,4.10
2019-02-08T10:05:29.041Z,3.90
2019-02-08T10:06:29.310Z,4.30
2019-02-08T10:07:29.321Z,3.90
2019-02-08T10:08:29.455Z,4.10
2019-02-08T10:09:30.416Z,4.60
2019-02-08T10:10:30.570Z,4.20
2019-02-08T10:11:30.234Z,4.00
2019-02-08T10:12:30.759Z,4.30
2019-02-08T10:13:30.823Z,3.70
2019-02-08T10:14:31.188Z,3.70
2019-02-08T10:15:31.689Z,3.80
2019-02-08T10:16:31.360Z,3.80
2019-02-08T10:17:31.791Z,4.10
2019-02-08T10:18:31.623Z,4.30
2019-02-08T10:19:31.686Z,3.70
2019-02-08T10:20:32.779Z,5.00
2019-02-08T10:21:32.175Z,3.90
2019-02-08T10:22:32.375Z,4.00
2019-02-08T10:23:32.487Z,4.00
2019-02-08T10:24:32.800Z,3.80
2019-02-08T10:25:33.114Z,5.00
2019-02-08T10:26:33.212Z,4.20
2019-02-08T10:27:33.847Z,4.40
2019-02-08T10:28:33.588Z,3.80
2019-02-08T10:29:33.903Z,4.00
2019-02-08T10:30:34.211Z,3.80
2019-02-08T10:31:34.338Z,3.80
2019-02-08T10:32:35.003Z,3.90
2019-02-08T10:33:34.698Z,4.20
2019-02-08T10:34:35.016Z,3.60
2019-02-08T10:35:35.534Z,4.60
2019-02-08T10:36:35.961Z,3.70
2019-02-08T10:37:36.674Z,3.90
2019-02-08T10:38:36.986Z,3.80
2019-02-08T10:39:37.303Z,3.60
2019-02-08T10:40:37.518Z,4.40
2019-02-08T10:41:37.826Z,3.80
2019-02-08T10:42:37.937Z,4.20
2019-02-08T10:43:37.941Z,4.70
2019-02-08T10:44:37.952Z,4.00
2019-02-08T10:45:37.780Z,3.70
2019-02-08T10:46:38.179Z,3.70
2019-02-08T10:47:38.580Z,3.70
2019-02-08T10:48:38.585Z,4.10
2019-02-08T10:49:39.209Z,4.10
2019-02-08T10:50:39.319Z,4.20
2019-02-08T10:51:39.384Z,4.30
2019-02-08T10:52:39.429Z,4.20
2019-02-08T10:53:39.795Z,3.70
2019-02-08T10:54:39.915Z,4.40
2019-02-08T10:55:40.374Z,3.40
2019-02-08T10:56:40.505Z,4.10
2019-02-08T10:57:40.901Z,3.90
2019-02-08T10:58:40.731Z,3.80
2019-02-08T10:59:40.893Z,3.00
2019-02-08T11:00:41.352Z,3.80
2019-02-08T11:01:42.133Z,3.50
2019-02-08T11:02:42.050Z,3.50
2019-02-08T11:03:41.715Z,4.00
2019-02-08T11:04:41.812Z,3.40
2019-02-08T11:05:42.116Z,3.60
2019-02-08T11:06:42.543Z,3.30
2019-02-08T11:07:42.562Z,3.50
2019-02-08T11:08:42.814Z,4.30
2019-02-08T11:09:42.982Z,3.70
2019-02-08T11:10:43.171Z,3.20
2019-02-08T11:11:43.567Z,3.60
2019-02-08T11:12:43.659Z,3.90
2019-02-08T11:13:43.644Z,3.10
2019-02-08T11:14:43.692Z,3.50
2019-02-08T11:15:43.725Z,3.70
2019-02-08T11:16:44.404Z,3.20
2019-02-08T11:17:44.166Z,3.70
2019-02-08T11:18:44.212Z,3.00
2019-02-08T11:19:44.372Z,3.20
2019-02-08T11:20:44.969Z,2.80
2019-02-08T11:21:44.856Z,3.40
2019-02-08T11:22:45.025Z,3.10
2019-02-08T11:23:45.431Z,2.90
2019-02-08T11:24:45.758Z,2.80
2019-02-08T11:25:46.513Z,3.40
2019-02-08T11:26:46.368Z,2.90
2019-02-08T11:27:46.689Z,2.70
2019-02-08T11:28:46.953Z,2.90
2019-02-08T11:29:47.779Z,2.90
2019-02-08T11:30:47.563Z,2.80
2019-02-08T11:31:48.322Z,3.50
2019-02-08T11:32:48.151Z,2.80
2019-02-08T11:33:48.669Z,2.70
2019-02-08T11:34:48.558Z,2.80
2019-02-08T11:35:48.878Z,2.80
2019-02-08T11:36:49.963Z,2.90
2019-02-08T11:37:49.458Z,2.90
2019-02-08T11:38:49.295Z,2.80
2019-02-08T11:39:50.092Z,3.00
2019-02-08T11:40:51.128Z,2.30
2019-02-08T11:41:50.509Z,3.00
2019-02-08T11:42:51.344Z,2.90
2019-02-08T11:43:51.750Z,2.90
2019-02-08T11:44:52.173Z,2.90
2019-02-08T11:45:52.688Z,2.80
2019-02-08T11:46:52.591Z,3.30
2019-02-08T11:47:53.012Z,2.50
2019-02-08T11:48:53.215Z,2.90
2019-02-08T11:49:53.427Z,2.80
2019-02-08T11:50:53.533Z,3.70
2019-02-08T11:51:53.634Z,2.80
2019-02-08T11:52:53.643Z,3.10
2019-02-08T11:53:53.761Z,3.30
2019-02-08T11:54:53.795Z,2.90
2019-02-08T11:55:54.077Z,2.90
2019-02-08T11:56:53.884Z,2.60
2019-02-08T11:57:54.327Z,2.30
2019-02-08T11:58:54.798Z,2.90
2019-02-08T11:59:55.106Z,2.30
2019-02-08T12:00:55.596Z,3.00
2019-02-08T12:01:55.675Z,2.70
2019-02-08T12:02:55.809Z,2.80
2019-02-08T12:03:55.784Z,2.80
2019-02-08T12:04:56.123Z,2.50
2019-02-08T12:05:56.601Z,2.80
2019-02-08T12:06:57.322Z,3.00
2019-02-08T12:07:57.172Z,3.20
2019-02-08T12:08:57.498Z,2.90
2019-02-08T12:09:57.793Z,2.70
2019-02-08T12:10:58.119Z,2.40
2019-02-08T12:11:58.475Z,2.30
2019-02-08T12:12:58.841Z,2.60
2019-02-08T12:13:59.171Z,2.40
2019-02-08T12:14:59.450Z,3.10
2019-02-08T12:15:59.883Z,2.20
2019-02-08T12:17:00.302Z,2.70
2019-02-08T12:18:00.636Z,2.30
2019-02-08T12:19:01.517Z,3.30
2019-02-08T12:20:01.338Z,2.80
2019-02-08T12:21:02.023Z,2.10
2019-02-08T12:22:01.843Z,2.50
2019-02-08T12:24:02.762Z,2.50
2019-02-08T12:25:03.177Z,2.70
2019-02-08T12:26:03.185Z,2.70
2019-02-08T12:27:03.364Z,2.60
2019-02-08T12:28:03.245Z,2.30
2019-02-08T12:29:04.142Z,3.00
2019-02-08T12:30:04.030Z,2.90
2019-02-08T12:31:04.228Z,2.70
2019-02-08T12:32:04.727Z,2.50
2019-02-08T12:33:05.890Z,3.10
2019-02-08T12:34:06.321Z,2.80
2019-02-08T12:35:06.521Z,2.90
2019-02-08T12:36:07.038Z,2.80
2019-02-08T12:37:06.950Z,2.40
2019-02-08T12:38:07.359Z,3.00
2019-02-08T12:39:07.886Z,2.80
2019-02-08T12:40:07.989Z,2.80
2019-02-08T12:42:07.713Z,2.80
2019-02-08T12:43:07.964Z,2.90
2019-02-08T12:44:08.435Z,3.60
2019-02-08T12:45:08.343Z,2.40
2019-02-08T12:46:08.756Z,3.10
2019-02-08T12:47:08.968Z,3.10
2019-02-08T12:48:08.979Z,3.10
2019-02-08T12:49:09.083Z,2.80
2019-02-08T12:50:09.401Z,3.00
2019-02-08T12:51:09.710Z,3.10
2019-02-08T12:52:09.933Z,2.80
2019-02-08T12:53:10.241Z,2.90
2019-02-08T12:54:10.302Z,2.40
2019-02-08T12:55:10.733Z,2.50
2019-02-08T12:56:10.481Z,3.60
2019-02-08T12:57:10.570Z,3.10
2019-02-08T12:58:10.548Z,2.50
2019-02-08T12:59:10.793Z,3.20
2019-02-08T13:00:10.722Z,2.70
2019-02-08T13:01:10.899Z,3.20
2019-02-08T13:02:11.175Z,2.50
2019-02-08T13:03:11.481Z,2.50
2019-02-08T13:04:11.518Z,3.10
2019-02-08T13:05:12.160Z,2.40
2019-02-08T13:06:12.469Z,2.90
2019-02-08T13:07:12.497Z,2.70
2019-02-08T13:08:12.483Z,2.90
2019-02-08T13:09:12.796Z,2.80
2019-02-08T13:10:12.608Z,3.00
2019-02-08T13:11:13.529Z,2.50
2019-02-08T13:12:14.505Z,2.40
2019-02-08T13:13:13.658Z,2.40
2019-02-08T13:14:13.520Z,2.80
2019-02-08T13:15:14.997Z,3.40
2019-02-08T13:16:14.443Z,3.30
2019-02-08T13:17:15.484Z,2.60
2019-02-08T13:18:15.173Z,2.60
2019-02-08T13:19:15.072Z,2.90
2019-02-08T13:20:16.273Z,2.90
2019-02-08T13:21:15.705Z,2.60
2019-02-08T13:23:16.127Z,2.80
2019-02-08T13:24:16.541Z,2.50
2019-02-08T13:25:17.119Z,2.80
2019-02-08T13:26:19.318Z,2.00